Terminal Aerodrome Forecast
Issued by NWS Cleveland, OH

Home | Current Version | Previous Version | Graphics & Text | Print | Product List | Glossary Off
Versions: 1 2 3 4 5 6 7 8 9 10 11 12 13 14 15 16 17 18

284
FTUS41 KCLE 260256 AAB
TAFYNG
TAF AMD
KYNG 260256Z 2603/2624 12008KT P6SM SCT030
     FM260600 10004KT P6SM BKN250
     FM261600 16012KT P6SM SCT040=

USA.gov is the U.S. government's official web portal to all federal, state and local government web resources and services.